sensor_id;sensor_type;location;lat;lon;timestamp;P1;durP1;ratioP1;P2;durP2;ratioP2
57385;SDS011;61487;56.494;21.014;2022-07-23T00:00:16;20.08;;;15.43;;
57385;SDS011;61487;56.494;21.014;2022-07-23T00:02:43;19.10;;;14.95;;
57385;SDS011;61487;56.494;21.014;2022-07-23T00:05:11;22.05;;;14.05;;
57385;SDS011;61487;56.494;21.014;2022-07-23T00:07:38;17.35;;;13.80;;
57385;SDS011;61487;56.494;21.014;2022-07-23T00:10:05;23.20;;;15.55;;
57385;SDS011;61487;56.494;21.014;2022-07-23T00:12:32;19.48;;;13.70;;
57385;SDS011;61487;56.494;21.014;2022-07-23T00:15:00;14.27;;;11.68;;
57385;SDS011;61487;56.494;21.014;2022-07-23T00:17:28;14.95;;;9.48;;
57385;SDS011;61487;56.494;21.014;2022-07-23T00:19:55;12.73;;;8.65;;
57385;SDS011;61487;56.494;21.014;2022-07-23T00:22:22;13.23;;;7.95;;
57385;SDS011;61487;56.494;21.014;2022-07-23T00:24:50;10.52;;;7.55;;
57385;SDS011;61487;56.494;21.014;2022-07-23T00:27:37;10.52;;;7.45;;
57385;SDS011;61487;56.494;21.014;2022-07-23T00:30:04;15.82;;;7.35;;
57385;SDS011;61487;56.494;21.014;2022-07-23T00:32:31;9.35;;;6.50;;
57385;SDS011;61487;56.494;21.014;2022-07-23T00:35:19;8.93;;;6.07;;
57385;SDS011;61487;56.494;21.014;2022-07-23T00:37:48;12.20;;;7.10;;
57385;SDS011;61487;56.494;21.014;2022-07-23T00:40:15;9.43;;;6.97;;
57385;SDS011;61487;56.494;21.014;2022-07-23T00:42:43;8.38;;;7.05;;
57385;SDS011;61487;56.494;21.014;2022-07-23T00:45:10;10.90;;;6.22;;
57385;SDS011;61487;56.494;21.014;2022-07-23T00:47:37;7.28;;;5.47;;
57385;SDS011;61487;56.494;21.014;2022-07-23T00:50:05;12.43;;;5.82;;
57385;SDS011;61487;56.494;21.014;2022-07-23T00:52:34;8.60;;;6.70;;
57385;SDS011;61487;56.494;21.014;2022-07-23T00:55:02;8.23;;;5.25;;
57385;SDS011;61487;56.494;21.014;2022-07-23T00:57:30;8.45;;;6.13;;
57385;SDS011;61487;56.494;21.014;2022-07-23T00:59:58;6.75;;;5.53;;
57385;SDS011;61487;56.494;21.014;2022-07-23T01:02:26;9.73;;;5.55;;
57385;SDS011;61487;56.494;21.014;2022-07-23T01:04:54;9.15;;;5.93;;
57385;SDS011;61487;56.494;21.014;2022-07-23T01:07:21;11.88;;;7.65;;
57385;SDS011;61487;56.494;21.014;2022-07-23T01:09:48;8.30;;;5.35;;
57385;SDS011;61487;56.494;21.014;2022-07-23T01:12:17;6.57;;;5.22;;
57385;SDS011;61487;56.494;21.014;2022-07-23T01:14:44;8.75;;;4.70;;
57385;SDS011;61487;56.494;21.014;2022-07-23T01:17:11;8.40;;;4.43;;
57385;SDS011;61487;56.494;21.014;2022-07-23T01:19:39;9.48;;;4.03;;
57385;SDS011;61487;56.494;21.014;2022-07-23T01:22:06;9.23;;;4.20;;
57385;SDS011;61487;56.494;21.014;2022-07-23T01:24:33;7.22;;;4.60;;
57385;SDS011;61487;56.494;21.014;2022-07-23T01:27:00;7.72;;;4.90;;
57385;SDS011;61487;56.494;21.014;2022-07-23T01:29:27;8.70;;;4.78;;
57385;SDS011;61487;56.494;21.014;2022-07-23T01:31:54;7.88;;;5.22;;
57385;SDS011;61487;56.494;21.014;2022-07-23T01:34:21;11.88;;;4.80;;
57385;SDS011;61487;56.494;21.014;2022-07-23T01:36:49;6.40;;;4.38;;
57385;SDS011;61487;56.494;21.014;2022-07-23T01:39:16;7.43;;;5.35;;
57385;SDS011;61487;56.494;21.014;2022-07-23T01:41:44;11.13;;;6.07;;
57385;SDS011;61487;56.494;21.014;2022-07-23T01:44:16;8.38;;;5.18;;
57385;SDS011;61487;56.494;21.014;2022-07-23T01:46:43;14.18;;;5.88;;
57385;SDS011;61487;56.494;21.014;2022-07-23T01:49:10;9.52;;;5.45;;
57385;SDS011;61487;56.494;21.014;2022-07-23T01:51:38;6.68;;;4.65;;
57385;SDS011;61487;56.494;21.014;2022-07-23T01:54:32;12.90;;;5.43;;
57385;SDS011;61487;56.494;21.014;2022-07-23T01:57:00;9.05;;;4.70;;
57385;SDS011;61487;56.494;21.014;2022-07-23T01:59:27;15.10;;;5.55;;
57385;SDS011;61487;56.494;21.014;2022-07-23T02:01:55;11.13;;;4.22;;
57385;SDS011;61487;56.494;21.014;2022-07-23T02:04:23;8.13;;;4.28;;
57385;SDS011;61487;56.494;21.014;2022-07-23T02:06:52;11.65;;;4.93;;
57385;SDS011;61487;56.494;21.014;2022-07-23T02:09:20;10.15;;;6.15;;
57385;SDS011;61487;56.494;21.014;2022-07-23T02:11:47;14.50;;;5.25;;
57385;SDS011;61487;56.494;21.014;2022-07-23T02:14:15;8.95;;;4.45;;
57385;SDS011;61487;56.494;21.014;2022-07-23T02:16:42;11.63;;;5.15;;
57385;SDS011;61487;56.494;21.014;2022-07-23T02:19:10;9.98;;;4.78;;
57385;SDS011;61487;56.494;21.014;2022-07-23T02:21:37;11.35;;;5.07;;
57385;SDS011;61487;56.494;21.014;2022-07-23T02:24:05;8.63;;;4.93;;
57385;SDS011;61487;56.494;21.014;2022-07-23T02:26:32;8.45;;;3.70;;
57385;SDS011;61487;56.494;21.014;2022-07-23T02:29:01;8.32;;;5.57;;
57385;SDS011;61487;56.494;21.014;2022-07-23T02:31:30;16.17;;;5.28;;
57385;SDS011;61487;56.494;21.014;2022-07-23T02:33:58;15.00;;;5.53;;
57385;SDS011;61487;56.494;21.014;2022-07-23T02:36:25;12.32;;;5.70;;
57385;SDS011;61487;56.494;21.014;2022-07-23T02:38:52;12.10;;;4.70;;
57385;SDS011;61487;56.494;21.014;2022-07-23T02:41:19;12.45;;;5.18;;
57385;SDS011;61487;56.494;21.014;2022-07-23T02:43:46;11.13;;;5.07;;
57385;SDS011;61487;56.494;21.014;2022-07-23T02:46:13;13.00;;;5.15;;
57385;SDS011;61487;56.494;21.014;2022-07-23T02:48:41;13.07;;;5.13;;
57385;SDS011;61487;56.494;21.014;2022-07-23T02:51:08;11.98;;;6.32;;
57385;SDS011;61487;56.494;21.014;2022-07-23T02:53:40;13.77;;;5.18;;
57385;SDS011;61487;56.494;21.014;2022-07-23T02:56:07;11.85;;;4.32;;
57385;SDS011;61487;56.494;21.014;2022-07-23T02:58:34;10.43;;;5.10;;
57385;SDS011;61487;56.494;21.014;2022-07-23T03:01:02;9.40;;;4.32;;
57385;SDS011;61487;56.494;21.014;2022-07-23T03:03:29;9.10;;;4.60;;
57385;SDS011;61487;56.494;21.014;2022-07-23T03:05:56;8.07;;;4.40;;
57385;SDS011;61487;56.494;21.014;2022-07-23T03:08:24;12.15;;;4.10;;
57385;SDS011;61487;56.494;21.014;2022-07-23T03:10:51;14.48;;;4.30;;
57385;SDS011;61487;56.494;21.014;2022-07-23T03:13:18;11.85;;;4.78;;
57385;SDS011;61487;56.494;21.014;2022-07-23T03:15:45;13.77;;;4.80;;
57385;SDS011;61487;56.494;21.014;2022-07-23T03:18:13;11.15;;;4.70;;
57385;SDS011;61487;56.494;21.014;2022-07-23T03:20:40;10.60;;;4.80;;
57385;SDS011;61487;56.494;21.014;2022-07-23T03:23:07;8.68;;;3.70;;
57385;SDS011;61487;56.494;21.014;2022-07-23T03:25:34;10.70;;;3.70;;
57385;SDS011;61487;56.494;21.014;2022-07-23T03:28:01;10.18;;;4.00;;
57385;SDS011;61487;56.494;21.014;2022-07-23T03:30:28;9.95;;;3.75;;
57385;SDS011;61487;56.494;21.014;2022-07-23T03:32:55;16.10;;;4.30;;
57385;SDS011;61487;56.494;21.014;2022-07-23T03:35:22;11.65;;;3.85;;
57385;SDS011;61487;56.494;21.014;2022-07-23T03:37:49;11.13;;;3.60;;
57385;SDS011;61487;56.494;21.014;2022-07-23T03:40:17;11.48;;;3.58;;
57385;SDS011;61487;56.494;21.014;2022-07-23T03:42:44;8.70;;;3.35;;
57385;SDS011;61487;56.494;21.014;2022-07-23T03:45:12;12.68;;;4.68;;
57385;SDS011;61487;56.494;21.014;2022-07-23T03:47:39;11.18;;;4.20;;
57385;SDS011;61487;56.494;21.014;2022-07-23T03:50:06;11.15;;;3.67;;
57385;SDS011;61487;56.494;21.014;2022-07-23T03:52:35;12.00;;;4.03;;
57385;SDS011;61487;56.494;21.014;2022-07-23T03:55:03;13.45;;;4.00;;
57385;SDS011;61487;56.494;21.014;2022-07-23T03:57:30;13.20;;;3.70;;
57385;SDS011;61487;56.494;21.014;2022-07-23T03:59:58;9.50;;;3.67;;
57385;SDS011;61487;56.494;21.014;2022-07-23T04:02:25;13.10;;;3.97;;
57385;SDS011;61487;56.494;21.014;2022-07-23T04:04:52;12.45;;;3.88;;
57385;SDS011;61487;56.494;21.014;2022-07-23T04:07:19;7.70;;;3.33;;
57385;SDS011;61487;56.494;21.014;2022-07-23T04:09:48;9.25;;;4.00;;
57385;SDS011;61487;56.494;21.014;2022-07-23T04:12:15;10.27;;;4.10;;
57385;SDS011;61487;56.494;21.014;2022-07-23T04:14:42;11.10;;;3.40;;
57385;SDS011;61487;56.494;21.014;2022-07-23T04:17:09;12.75;;;4.85;;
57385;SDS011;61487;56.494;21.014;2022-07-23T04:19:38;8.37;;;3.67;;
57385;SDS011;61487;56.494;21.014;2022-07-23T04:22:10;14.32;;;3.95;;
57385;SDS011;61487;56.494;21.014;2022-07-23T04:24:38;8.25;;;3.53;;
57385;SDS011;61487;56.494;21.014;2022-07-23T04:27:05;11.80;;;3.70;;
57385;SDS011;61487;56.494;21.014;2022-07-23T04:29:33;8.25;;;3.20;;
57385;SDS011;61487;56.494;21.014;2022-07-23T04:32:00;11.82;;;3.60;;
57385;SDS011;61487;56.494;21.014;2022-07-23T04:34:27;9.70;;;3.80;;
57385;SDS011;61487;56.494;21.014;2022-07-23T04:36:54;9.70;;;3.80;;
57385;SDS011;61487;56.494;21.014;2022-07-23T04:39:22;11.77;;;3.50;;
57385;SDS011;61487;56.494;21.014;2022-07-23T04:41:49;10.75;;;3.58;;
57385;SDS011;61487;56.494;21.014;2022-07-23T04:44:16;9.38;;;3.35;;
57385;SDS011;61487;56.494;21.014;2022-07-23T04:46:43;11.73;;;3.63;;
57385;SDS011;61487;56.494;21.014;2022-07-23T04:49:12;11.00;;;3.63;;
57385;SDS011;61487;56.494;21.014;2022-07-23T04:51:39;9.37;;;4.10;;
57385;SDS011;61487;56.494;21.014;2022-07-23T04:54:07;11.63;;;4.30;;
57385;SDS011;61487;56.494;21.014;2022-07-23T04:56:37;8.32;;;2.90;;
57385;SDS011;61487;56.494;21.014;2022-07-23T04:59:04;13.82;;;3.45;;
57385;SDS011;61487;56.494;21.014;2022-07-23T05:01:31;7.75;;;3.42;;
57385;SDS011;61487;56.494;21.014;2022-07-23T05:03:58;9.57;;;3.35;;
57385;SDS011;61487;56.494;21.014;2022-07-23T05:06:25;7.68;;;3.00;;
57385;SDS011;61487;56.494;21.014;2022-07-23T05:08:52;9.68;;;4.05;;
57385;SDS011;61487;56.494;21.014;2022-07-23T05:11:21;3.38;;;2.47;;
57385;SDS011;61487;56.494;21.014;2022-07-23T05:13:52;9.98;;;4.10;;
57385;SDS011;61487;56.494;21.014;2022-07-23T05:16:19;9.57;;;4.63;;
57385;SDS011;61487;56.494;21.014;2022-07-23T05:18:47;45.13;;;24.05;;
57385;SDS011;61487;56.494;21.014;2022-07-23T05:21:14;73.97;;;45.53;;
57385;SDS011;61487;56.494;21.014;2022-07-23T05:23:41;13.27;;;4.55;;
57385;SDS011;61487;56.494;21.014;2022-07-23T05:26:08;28.30;;;17.55;;
57385;SDS011;61487;56.494;21.014;2022-07-23T05:28:35;15.07;;;7.05;;
57385;SDS011;61487;56.494;21.014;2022-07-23T05:31:02;10.88;;;5.65;;
57385;SDS011;61487;56.494;21.014;2022-07-23T05:33:30;10.43;;;3.75;;
57385;SDS011;61487;56.494;21.014;2022-07-23T05:36:03;6.38;;;3.08;;
57385;SDS011;61487;56.494;21.014;2022-07-23T05:38:31;9.98;;;3.03;;
57385;SDS011;61487;56.494;21.014;2022-07-23T05:40:59;10.10;;;3.45;;
57385;SDS011;61487;56.494;21.014;2022-07-23T05:43:27;10.50;;;3.83;;
57385;SDS011;61487;56.494;21.014;2022-07-23T05:45:54;5.88;;;3.03;;
57385;SDS011;61487;56.494;21.014;2022-07-23T05:48:22;7.68;;;3.53;;
57385;SDS011;61487;56.494;21.014;2022-07-23T05:50:49;8.68;;;2.92;;
57385;SDS011;61487;56.494;21.014;2022-07-23T05:53:16;8.30;;;2.75;;
57385;SDS011;61487;56.494;21.014;2022-07-23T05:55:43;8.75;;;3.20;;
57385;SDS011;61487;56.494;21.014;2022-07-23T05:58:10;9.57;;;3.35;;
57385;SDS011;61487;56.494;21.014;2022-07-23T06:00:38;8.35;;;3.65;;
57385;SDS011;61487;56.494;21.014;2022-07-23T06:03:05;12.80;;;3.42;;
57385;SDS011;61487;56.494;21.014;2022-07-23T06:05:33;8.55;;;2.85;;
57385;SDS011;61487;56.494;21.014;2022-07-23T06:08:00;10.38;;;3.00;;
57385;SDS011;61487;56.494;21.014;2022-07-23T06:10:27;7.35;;;2.60;;
57385;SDS011;61487;56.494;21.014;2022-07-23T06:12:54;5.85;;;3.38;;
57385;SDS011;61487;56.494;21.014;2022-07-23T06:15:28;6.20;;;3.17;;
57385;SDS011;61487;56.494;21.014;2022-07-23T06:17:55;6.47;;;3.10;;
57385;SDS011;61487;56.494;21.014;2022-07-23T06:20:22;8.35;;;2.80;;
57385;SDS011;61487;56.494;21.014;2022-07-23T06:22:50;6.18;;;2.88;;
57385;SDS011;61487;56.494;21.014;2022-07-23T06:25:17;9.88;;;3.50;;
57385;SDS011;61487;56.494;21.014;2022-07-23T06:27:45;7.38;;;2.85;;
57385;SDS011;61487;56.494;21.014;2022-07-23T06:30:14;8.60;;;3.22;;
57385;SDS011;61487;56.494;21.014;2022-07-23T06:32:44;6.28;;;2.55;;
57385;SDS011;61487;56.494;21.014;2022-07-23T06:35:15;7.45;;;3.10;;
57385;SDS011;61487;56.494;21.014;2022-07-23T06:37:44;6.60;;;3.50;;
57385;SDS011;61487;56.494;21.014;2022-07-23T06:40:13;8.05;;;3.03;;
57385;SDS011;61487;56.494;21.014;2022-07-23T06:42:41;7.80;;;2.50;;
57385;SDS011;61487;56.494;21.014;2022-07-23T06:45:08;11.10;;;2.97;;
57385;SDS011;61487;56.494;21.014;2022-07-23T06:47:36;8.98;;;3.25;;
57385;SDS011;61487;56.494;21.014;2022-07-23T06:50:03;5.75;;;2.88;;
57385;SDS011;61487;56.494;21.014;2022-07-23T06:52:30;6.82;;;2.95;;
57385;SDS011;61487;56.494;21.014;2022-07-23T06:54:57;7.90;;;2.20;;
57385;SDS011;61487;56.494;21.014;2022-07-23T06:57:24;7.38;;;2.53;;
57385;SDS011;61487;56.494;21.014;2022-07-23T06:59:52;9.68;;;4.05;;
57385;SDS011;61487;56.494;21.014;2022-07-23T07:02:21;5.35;;;2.33;;
57385;SDS011;61487;56.494;21.014;2022-07-23T07:04:49;7.32;;;3.35;;
57385;SDS011;61487;56.494;21.014;2022-07-23T07:07:16;9.00;;;3.10;;
57385;SDS011;61487;56.494;21.014;2022-07-23T07:09:43;8.32;;;3.40;;
57385;SDS011;61487;56.494;21.014;2022-07-23T07:12:13;6.85;;;4.40;;
57385;SDS011;61487;56.494;21.014;2022-07-23T07:14:40;8.63;;;2.53;;
57385;SDS011;61487;56.494;21.014;2022-07-23T07:17:08;5.00;;;2.10;;
57385;SDS011;61487;56.494;21.014;2022-07-23T07:19:37;7.20;;;2.27;;
57385;SDS011;61487;56.494;21.014;2022-07-23T07:22:04;2.45;;;1.80;;
57385;SDS011;61487;56.494;21.014;2022-07-23T07:24:31;6.93;;;2.38;;
57385;SDS011;61487;56.494;21.014;2022-07-23T07:27:03;7.82;;;2.35;;
57385;SDS011;61487;56.494;21.014;2022-07-23T07:29:30;5.38;;;2.58;;
57385;SDS011;61487;56.494;21.014;2022-07-23T07:31:57;12.38;;;3.38;;
57385;SDS011;61487;56.494;21.014;2022-07-23T07:34:24;7.30;;;2.85;;
57385;SDS011;61487;56.494;21.014;2022-07-23T07:36:51;6.93;;;2.80;;
57385;SDS011;61487;56.494;21.014;2022-07-23T07:39:18;13.10;;;3.42;;
57385;SDS011;61487;56.494;21.014;2022-07-23T07:41:46;4.28;;;2.00;;
57385;SDS011;61487;56.494;21.014;2022-07-23T07:44:13;3.50;;;1.75;;
57385;SDS011;61487;56.494;21.014;2022-07-23T07:46:40;5.03;;;2.15;;
57385;SDS011;61487;56.494;21.014;2022-07-23T07:49:07;5.72;;;2.08;;
57385;SDS011;61487;56.494;21.014;2022-07-23T07:51:41;11.88;;;2.10;;
57385;SDS011;61487;56.494;21.014;2022-07-23T07:54:10;6.05;;;2.92;;
57385;SDS011;61487;56.494;21.014;2022-07-23T07:56:38;6.65;;;2.50;;
57385;SDS011;61487;56.494;21.014;2022-07-23T07:59:07;7.28;;;2.20;;
57385;SDS011;61487;56.494;21.014;2022-07-23T08:01:36;4.70;;;2.10;;
57385;SDS011;61487;56.494;21.014;2022-07-23T08:04:03;5.30;;;1.45;;
57385;SDS011;61487;56.494;21.014;2022-07-23T08:06:31;3.85;;;2.08;;
57385;SDS011;61487;56.494;21.014;2022-07-23T08:08:58;6.43;;;1.80;;
57385;SDS011;61487;56.494;21.014;2022-07-23T08:11:25;5.20;;;2.15;;
57385;SDS011;61487;56.494;21.014;2022-07-23T08:13:52;4.97;;;1.75;;
57385;SDS011;61487;56.494;21.014;2022-07-23T08:16:19;8.48;;;2.22;;
57385;SDS011;61487;56.494;21.014;2022-07-23T08:18:48;5.05;;;1.60;;
57385;SDS011;61487;56.494;21.014;2022-07-23T08:21:15;3.95;;;2.03;;
57385;SDS011;61487;56.494;21.014;2022-07-23T08:23:42;5.63;;;1.95;;
57385;SDS011;61487;56.494;21.014;2022-07-23T08:26:10;6.63;;;2.13;;
57385;SDS011;61487;56.494;21.014;2022-07-23T08:28:38;4.75;;;2.53;;
57385;SDS011;61487;56.494;21.014;2022-07-23T08:31:05;8.05;;;2.60;;
57385;SDS011;61487;56.494;21.014;2022-07-23T08:33:32;8.30;;;2.95;;
57385;SDS011;61487;56.494;21.014;2022-07-23T08:36:00;3.38;;;1.73;;
57385;SDS011;61487;56.494;21.014;2022-07-23T08:38:29;3.08;;;1.75;;
57385;SDS011;61487;56.494;21.014;2022-07-23T08:40:57;4.20;;;1.55;;
57385;SDS011;61487;56.494;21.014;2022-07-23T08:43:26;6.20;;;2.38;;
57385;SDS011;61487;56.494;21.014;2022-07-23T08:48:28;4.68;;;2.67;;
57385;SDS011;61487;56.494;21.014;2022-07-23T08:50:57;9.57;;;2.95;;
57385;SDS011;61487;56.494;21.014;2022-07-23T08:53:27;3.85;;;1.83;;
57385;SDS011;61487;56.494;21.014;2022-07-23T08:55:57;8.82;;;1.88;;
57385;SDS011;61487;56.494;21.014;2022-07-23T08:58:28;10.95;;;1.92;;
57385;SDS011;61487;56.494;21.014;2022-07-23T09:00:56;3.03;;;1.77;;
57385;SDS011;61487;56.494;21.014;2022-07-23T09:03:25;5.72;;;1.90;;
57385;SDS011;61487;56.494;21.014;2022-07-23T09:05:54;6.82;;;1.98;;
57385;SDS011;61487;56.494;21.014;2022-07-23T09:08:24;5.15;;;2.38;;
57385;SDS011;61487;56.494;21.014;2022-07-23T09:11:00;5.72;;;2.35;;
57385;SDS011;61487;56.494;21.014;2022-07-23T09:13:33;8.10;;;2.83;;
57385;SDS011;61487;56.494;21.014;2022-07-23T09:16:05;6.47;;;2.20;;
57385;SDS011;61487;56.494;21.014;2022-07-23T09:18:38;6.43;;;2.05;;
57385;SDS011;61487;56.494;21.014;2022-07-23T15:42:06;10.10;;;4.38;;
57385;SDS011;61487;56.494;21.014;2022-07-23T15:44:40;9.10;;;5.00;;
57385;SDS011;61487;56.494;21.014;2022-07-23T15:47:11;8.48;;;4.32;;
57385;SDS011;61487;56.494;21.014;2022-07-23T15:49:42;6.43;;;4.75;;
57385;SDS011;61487;56.494;21.014;2022-07-23T15:52:12;8.27;;;4.47;;
57385;SDS011;61487;56.494;21.014;2022-07-23T15:54:39;9.88;;;4.07;;
57385;SDS011;61487;56.494;21.014;2022-07-23T15:57:13;11.82;;;4.43;;
57385;SDS011;61487;56.494;21.014;2022-07-23T15:59:40;8.27;;;4.25;;
57385;SDS011;61487;56.494;21.014;2022-07-23T16:02:08;5.72;;;3.50;;
57385;SDS011;61487;56.494;21.014;2022-07-23T16:04:35;9.77;;;4.45;;
57385;SDS011;61487;56.494;21.014;2022-07-23T16:07:02;8.45;;;4.53;;
57385;SDS011;61487;56.494;21.014;2022-07-23T16:09:30;6.28;;;3.92;;
57385;SDS011;61487;56.494;21.014;2022-07-23T16:11:57;11.98;;;5.95;;
57385;SDS011;61487;56.494;21.014;2022-07-23T16:14:24;5.13;;;3.55;;
57385;SDS011;61487;56.494;21.014;2022-07-23T16:16:52;8.02;;;3.92;;
57385;SDS011;61487;56.494;21.014;2022-07-23T16:19:19;11.25;;;4.10;;
57385;SDS011;61487;56.494;21.014;2022-07-23T16:21:46;9.65;;;5.05;;
57385;SDS011;61487;56.494;21.014;2022-07-23T16:24:16;5.68;;;3.13;;
57385;SDS011;61487;56.494;21.014;2022-07-23T16:26:43;11.27;;;4.30;;
57385;SDS011;61487;56.494;21.014;2022-07-23T16:29:11;5.80;;;4.18;;
57385;SDS011;61487;56.494;21.014;2022-07-23T16:31:45;7.75;;;4.65;;
57385;SDS011;61487;56.494;21.014;2022-07-23T16:34:19;11.60;;;4.22;;
57385;SDS011;61487;56.494;21.014;2022-07-23T16:36:46;7.00;;;4.50;;
57385;SDS011;61487;56.494;21.014;2022-07-23T16:39:13;9.40;;;3.58;;
57385;SDS011;61487;56.494;21.014;2022-07-23T16:41:41;5.47;;;3.80;;
57385;SDS011;61487;56.494;21.014;2022-07-23T16:44:09;15.80;;;3.75;;
57385;SDS011;61487;56.494;21.014;2022-07-23T16:46:37;12.40;;;4.10;;
57385;SDS011;61487;56.494;21.014;2022-07-23T16:49:05;8.48;;;4.18;;
57385;SDS011;61487;56.494;21.014;2022-07-23T16:51:33;11.38;;;4.13;;
57385;SDS011;61487;56.494;21.014;2022-07-23T16:54:00;7.75;;;3.83;;
57385;SDS011;61487;56.494;21.014;2022-07-23T16:56:27;10.68;;;4.60;;
57385;SDS011;61487;56.494;21.014;2022-07-23T16:58:55;9.90;;;3.72;;
57385;SDS011;61487;56.494;21.014;2022-07-23T17:01:22;7.78;;;4.38;;
57385;SDS011;61487;56.494;21.014;2022-07-23T17:03:50;8.75;;;4.20;;
57385;SDS011;61487;56.494;21.014;2022-07-23T17:06:17;9.38;;;4.13;;
57385;SDS011;61487;56.494;21.014;2022-07-23T17:08:49;8.15;;;4.05;;
57385;SDS011;61487;56.494;21.014;2022-07-23T17:11:21;9.23;;;4.18;;
57385;SDS011;61487;56.494;21.014;2022-07-23T17:13:48;7.43;;;3.83;;
57385;SDS011;61487;56.494;21.014;2022-07-23T17:16:15;10.55;;;4.15;;
57385;SDS011;61487;56.494;21.014;2022-07-23T17:18:43;10.10;;;4.80;;
57385;SDS011;61487;56.494;21.014;2022-07-23T17:21:11;7.68;;;3.95;;
57385;SDS011;61487;56.494;21.014;2022-07-23T17:23:38;6.75;;;4.35;;
57385;SDS011;61487;56.494;21.014;2022-07-23T17:26:05;10.00;;;4.13;;
57385;SDS011;61487;56.494;21.014;2022-07-23T17:28:33;9.45;;;4.35;;
57385;SDS011;61487;56.494;21.014;2022-07-23T17:31:00;7.18;;;3.92;;
57385;SDS011;61487;56.494;21.014;2022-07-23T17:33:27;7.22;;;4.35;;
57385;SDS011;61487;56.494;21.014;2022-07-23T17:35:54;8.77;;;4.55;;
57385;SDS011;61487;56.494;21.014;2022-07-23T17:38:22;14.90;;;7.13;;
57385;SDS011;61487;56.494;21.014;2022-07-23T17:40:50;20.13;;;15.15;;
57385;SDS011;61487;56.494;21.014;2022-07-23T17:43:17;28.23;;;15.32;;
57385;SDS011;61487;56.494;21.014;2022-07-23T17:45:44;57.67;;;35.35;;
57385;SDS011;61487;56.494;21.014;2022-07-23T17:48:12;82.68;;;56.28;;
57385;SDS011;61487;56.494;21.014;2022-07-23T17:50:39;18.40;;;13.23;;
57385;SDS011;61487;56.494;21.014;2022-07-23T17:53:06;11.65;;;6.80;;
57385;SDS011;61487;56.494;21.014;2022-07-23T17:55:34;7.05;;;5.47;;
57385;SDS011;61487;56.494;21.014;2022-07-23T17:58:01;5.32;;;4.72;;
57385;SDS011;61487;56.494;21.014;2022-07-23T18:00:30;10.88;;;5.00;;
57385;SDS011;61487;56.494;21.014;2022-07-23T18:02:59;6.30;;;4.93;;
57385;SDS011;61487;56.494;21.014;2022-07-23T18:05:32;8.57;;;4.97;;
57385;SDS011;61487;56.494;21.014;2022-07-23T18:07:59;6.60;;;4.63;;
57385;SDS011;61487;56.494;21.014;2022-07-23T18:10:29;5.70;;;4.97;;
57385;SDS011;61487;56.494;21.014;2022-07-23T18:12:57;6.75;;;4.53;;
57385;SDS011;61487;56.494;21.014;2022-07-23T18:15:25;10.77;;;5.50;;
57385;SDS011;61487;56.494;21.014;2022-07-23T18:17:52;9.18;;;4.88;;
57385;SDS011;61487;56.494;21.014;2022-07-23T18:20:19;8.55;;;4.47;;
57385;SDS011;61487;56.494;21.014;2022-07-23T18:22:47;5.10;;;4.07;;
57385;SDS011;61487;56.494;21.014;2022-07-23T18:25:15;9.77;;;4.72;;
57385;SDS011;61487;56.494;21.014;2022-07-23T18:27:42;10.90;;;5.07;;
57385;SDS011;61487;56.494;21.014;2022-07-23T18:30:13;9.93;;;4.65;;
57385;SDS011;61487;56.494;21.014;2022-07-23T18:32:41;10.65;;;5.07;;
57385;SDS011;61487;56.494;21.014;2022-07-23T18:35:09;7.68;;;3.95;;
57385;SDS011;61487;56.494;21.014;2022-07-23T18:37:40;6.28;;;4.03;;
57385;SDS011;61487;56.494;21.014;2022-07-23T18:40:09;5.07;;;3.70;;
57385;SDS011;61487;56.494;21.014;2022-07-23T18:42:37;5.05;;;2.85;;
57385;SDS011;61487;56.494;21.014;2022-07-23T18:45:04;8.07;;;3.00;;
57385;SDS011;61487;56.494;21.014;2022-07-23T18:47:34;6.15;;;2.70;;
57385;SDS011;61487;56.494;21.014;2022-07-23T18:50:02;6.03;;;2.22;;
57385;SDS011;61487;56.494;21.014;2022-07-23T18:52:30;6.90;;;2.83;;
57385;SDS011;61487;56.494;21.014;2022-07-23T18:54:58;4.68;;;2.15;;
57385;SDS011;61487;56.494;21.014;2022-07-23T18:57:25;7.25;;;3.28;;
57385;SDS011;61487;56.494;21.014;2022-07-23T18:59:53;3.10;;;2.30;;
57385;SDS011;61487;56.494;21.014;2022-07-23T19:02:20;5.30;;;2.17;;
57385;SDS011;61487;56.494;21.014;2022-07-23T19:04:47;4.28;;;2.28;;
57385;SDS011;61487;56.494;21.014;2022-07-23T19:07:14;3.13;;;2.15;;
57385;SDS011;61487;56.494;21.014;2022-07-23T19:09:42;3.33;;;2.35;;
57385;SDS011;61487;56.494;21.014;2022-07-23T19:12:09;5.60;;;2.33;;
57385;SDS011;61487;56.494;21.014;2022-07-23T19:14:36;8.48;;;4.75;;
57385;SDS011;61487;56.494;21.014;2022-07-23T19:17:03;11.10;;;6.13;;
57385;SDS011;61487;56.494;21.014;2022-07-23T19:19:31;10.02;;;4.70;;
57385;SDS011;61487;56.494;21.014;2022-07-23T19:21:58;10.80;;;5.70;;
57385;SDS011;61487;56.494;21.014;2022-07-23T19:24:26;8.60;;;4.55;;
57385;SDS011;61487;56.494;21.014;2022-07-23T19:26:53;22.08;;;15.18;;
57385;SDS011;61487;56.494;21.014;2022-07-23T19:29:20;3.90;;;2.97;;
57385;SDS011;61487;56.494;21.014;2022-07-23T19:31:48;15.98;;;12.15;;
57385;SDS011;61487;56.494;21.014;2022-07-23T19:34:15;4.47;;;2.97;;
57385;SDS011;61487;56.494;21.014;2022-07-23T19:36:42;4.00;;;2.50;;
57385;SDS011;61487;56.494;21.014;2022-07-23T19:39:09;4.43;;;3.03;;
57385;SDS011;61487;56.494;21.014;2022-07-23T19:41:39;2.25;;;1.92;;
57385;SDS011;61487;56.494;21.014;2022-07-23T19:44:07;3.92;;;3.35;;
57385;SDS011;61487;56.494;21.014;2022-07-23T19:46:34;4.05;;;2.38;;
57385;SDS011;61487;56.494;21.014;2022-07-23T19:49:02;2.35;;;2.15;;
57385;SDS011;61487;56.494;21.014;2022-07-23T19:51:32;7.70;;;4.32;;
57385;SDS011;61487;56.494;21.014;2022-07-23T19:53:59;4.15;;;2.60;;
57385;SDS011;61487;56.494;21.014;2022-07-23T19:56:26;3.40;;;2.75;;
57385;SDS011;61487;56.494;21.014;2022-07-23T20:01:23;5.45;;;2.75;;
57385;SDS011;61487;56.494;21.014;2022-07-23T20:03:51;2.65;;;2.45;;
57385;SDS011;61487;56.494;21.014;2022-07-23T20:06:18;6.65;;;2.60;;
57385;SDS011;61487;56.494;21.014;2022-07-23T20:08:45;5.55;;;2.90;;
57385;SDS011;61487;56.494;21.014;2022-07-23T20:11:12;5.78;;;3.17;;
57385;SDS011;61487;56.494;21.014;2022-07-23T20:13:39;2.80;;;2.50;;
57385;SDS011;61487;56.494;21.014;2022-07-23T20:16:07;3.65;;;2.33;;
57385;SDS011;61487;56.494;21.014;2022-07-23T20:18:34;4.30;;;2.42;;
57385;SDS011;61487;56.494;21.014;2022-07-23T20:21:01;4.53;;;2.67;;
57385;SDS011;61487;56.494;21.014;2022-07-23T20:23:29;2.88;;;2.55;;
57385;SDS011;61487;56.494;21.014;2022-07-23T20:25:56;4.97;;;2.70;;
57385;SDS011;61487;56.494;21.014;2022-07-23T20:28:24;3.28;;;2.65;;
57385;SDS011;61487;56.494;21.014;2022-07-23T20:30:51;3.22;;;2.03;;
57385;SDS011;61487;56.494;21.014;2022-07-23T20:33:19;2.47;;;1.80;;
57385;SDS011;61487;56.494;21.014;2022-07-23T20:35:48;2.55;;;1.90;;
57385;SDS011;61487;56.494;21.014;2022-07-23T20:38:15;2.20;;;1.90;;
57385;SDS011;61487;56.494;21.014;2022-07-23T20:40:43;2.78;;;1.80;;
57385;SDS011;61487;56.494;21.014;2022-07-23T20:43:13;2.90;;;2.70;;
57385;SDS011;61487;56.494;21.014;2022-07-23T20:45:41;3.40;;;1.70;;
57385;SDS011;61487;56.494;21.014;2022-07-23T20:48:10;2.20;;;2.00;;
57385;SDS011;61487;56.494;21.014;2022-07-23T20:50:38;3.95;;;2.20;;
57385;SDS011;61487;56.494;21.014;2022-07-23T20:53:06;2.45;;;2.15;;
57385;SDS011;61487;56.494;21.014;2022-07-23T20:55:33;4.43;;;3.08;;
57385;SDS011;61487;56.494;21.014;2022-07-23T20:58:01;4.95;;;3.75;;